Fordville, North Dakota
Current Conditions -  °F | °C
As of 7:55 AM on Wednesday 26 Nov 2014 (Local Time) from KGAF Reporting Station
Overcast Overcast  
Wind Chill: -24°   Ceiling: 6500
Heat Index: -2°   Visibility: 10mi
Dew Point: -8°   Wind: 18mph
Humidity: 78%   Direction: 350°N
Pressure: 30.41"   Gusts: NA
Location:  48.22°N, 97.79°W
Report Text: KGAF 261355Z AUTO 35016KT 10SM OVC065 M19/M22 A3041 RMK AO2
Loading
Personal Weather Stations






























Interactive Weather Map New forecast layout! Learn more

10-Day Weather Forecast

Advertisements
Track Severe Weather on mobile